Surface observations / Quebec / CYHU

Quebec | Canada | USA | France | UK | Europe | Elsewhere

Display: Info & Location for CYHU | Help decoding METAR

YHU SAINT-HUBERT ARPT QB CN
Raw surface observations for station CYHU
CYHU 250700Z AUTO 33007KT 9SM CLR 02/M07 A3002 RMK SLP165=
CYHU 250600Z AUTO 33010KT 9SM CLR 03/M06 A3001 RMK SLP161=
CYHU 250500Z AUTO 35009KT 9SM CLR 05/M06 A3001 RMK SLP162=
CYHU 250400Z AUTO 35009KT 9SM CLR 06/M05 A3001 RMK SLP163=
CYHU 250300Z AUTO 33007KT 9SM CLR 06/M05 A3001 RMK SLP163=
CYHU 250200Z AUTO 34008KT 9SM CLR 06/M04 A3000 RMK SLP161=
CYHU 250100Z AUTO 33007KT 9SM CLR 08/M04 A2999 RMK SLP158=
CYHU 250000Z AUTO 34010G15KT 9SM CLR 09/M04 A2997 RMK MAX WND 32019KT AT 2311Z SLP150=
CYHU 242300Z AUTO 35010G18KT 9SM CLR 11/M04 A2995 RMK MAX WND 32021KT AT 2246Z SLP141=
CYHU 242200Z AUTO 33013G18KT 9SM FEW070 12/M04 A2993 RMK MAX WND 32028KT AT 2134Z SLP134=
CYHU 242100Z AUTO 33015G24KT 9SM CLR 13/M03 A2991 RMK MAX WND 34025KT AT 2100Z SLP130=
CYHU 242000Z AUTO 34014G24KT 9SM FEW065 13/M02 A2990 RMK MAX WND 32025KT AT 1915Z SLP126=
CYHU 241900Z AUTO 32020G28KT 9SM SCT060 12/M03 A2990 RMK MAX WND 32028KT AT 1859Z SLP124=
CYHU 241800Z AUTO 34011G22KT 300V010 9SM SCT060 11/M03 A2990 RMK MAX WND 31026KT AT 1740Z SLP126=
CYHU 241700Z AUTO 33017G25KT 9SM SCT060 11/M03 A2990 RMK MAX WND 35025KT AT 1654Z SLP126=
CYHU 241600Z AUTO 33016G26KT 9SM CLR 10/M04 A2990 RMK MAX WND 33026KT AT 1558Z SLP127=
CYHU 241500Z AUTO 32018KT 280V340 9SM CLR 09/M05 A2990 RMK MAX WND 33027KT AT 1433Z SLP125=
CYHU 241400Z AUTO 30016G22KT 9SM CLR 06/M06 A2990 RMK MAX WND 30022KT AT 1358Z SLP124=
CYHU 241300Z AUTO 30013G20KT 9SM CLR 05/M07 A2990 RMK MAX WND 30022KT AT 1248Z SLP125=
CYHU 241200Z AUTO 29012G17KT 9SM CLR 04/M06 A2989 RMK MAX WND 31020KT AT 1136Z SLP122=
CYHU 241100Z AUTO 31010G16KT 9SM FEW049 SCT065 BKN095 03/M07 A2987 RMK MAX WND 33021KT AT 1017Z SLP116=
CYHU 241032Z AUTO 32009G16KT 9SM SCT049 OVC060 02/M05 A2986 RMK MAX WND 33021KT AT 1017Z SLP113=
CYHU 241022Z AUTO 34014G21KT 9SM -RA BKN050 OVC060 02/M05 A2986 RMK MAX WND 33021KT AT 1017Z SLP111=
CYHU 241000Z AUTO 31009G19KT 9SM BKN055 OVC070 02/M07 A2985 RMK MAX WND 31019KT AT 0955Z SLP109=
CYHU 240900Z AUTO 32011G17KT 9SM CLR 02/M07 A2984 RMK MAX WND 33019KT AT 0806Z SLP104=
CYHU 240800Z AUTO 31014KT 9SM CLR 02/M07 A2982 RMK MAX WND 32019KT AT 0735Z SLP099=
CYHU 240700Z AUTO 31014KT 9SM CLR 03/M06 A2982 RMK MAX WND 31020KT AT 0612Z SLP097=